sensor_id;sensor_type;location;lat;lon;timestamp;temperature;humidity
20422;DHT22;10370;53.102;18.034;2022-09-13T00:03:58;7.90;99.90
20422;DHT22;10370;53.102;18.034;2022-09-13T00:09:21;7.80;99.90
20422;DHT22;10370;53.102;18.034;2022-09-13T00:14:41;7.70;99.90
20422;DHT22;10370;53.102;18.034;2022-09-13T00:20:03;7.70;99.90
20422;DHT22;10370;53.102;18.034;2022-09-13T00:25:23;7.60;99.90
20422;DHT22;10370;53.102;18.034;2022-09-13T00:30:44;7.60;99.90
20422;DHT22;10370;53.102;18.034;2022-09-13T00:36:07;7.60;99.90
20422;DHT22;10370;53.102;18.034;2022-09-13T00:41:29;7.60;99.90
20422;DHT22;10370;53.102;18.034;2022-09-13T00:46:51;7.60;99.90
20422;DHT22;10370;53.102;18.034;2022-09-13T00:52:15;7.60;99.90
20422;DHT22;10370;53.102;18.034;2022-09-13T00:57:38;7.50;99.90
20422;DHT22;10370;53.102;18.034;2022-09-13T01:03:03;7.60;99.90
20422;DHT22;10370;53.102;18.034;2022-09-13T01:08:27;7.50;99.90
20422;DHT22;10370;53.102;18.034;2022-09-13T01:13:51;7.40;99.90
20422;DHT22;10370;53.102;18.034;2022-09-13T01:19:11;7.40;99.90
20422;DHT22;10370;53.102;18.034;2022-09-13T01:30:06;7.40;99.90
20422;DHT22;10370;53.102;18.034;2022-09-13T01:35:49;7.40;99.90
20422;DHT22;10370;53.102;18.034;2022-09-13T01:47:00;7.30;99.90
20422;DHT22;10370;53.102;18.034;2022-09-13T02:03:21;7.20;99.90
20422;DHT22;10370;53.102;18.034;2022-09-13T02:08:51;7.20;99.90
20422;DHT22;10370;53.102;18.034;2022-09-13T02:14:20;7.10;99.90
20422;DHT22;10370;53.102;18.034;2022-09-13T02:19:56;7.10;99.90
20422;DHT22;10370;53.102;18.034;2022-09-13T02:25:19;7.10;99.90
20422;DHT22;10370;53.102;18.034;2022-09-13T02:30:47;7.00;99.90
20422;DHT22;10370;53.102;18.034;2022-09-13T02:36:16;6.90;99.90
20422;DHT22;10370;53.102;18.034;2022-09-13T02:53:03;7.20;99.90
20422;DHT22;10370;53.102;18.034;2022-09-13T02:58:32;7.20;99.90
20422;DHT22;10370;53.102;18.034;2022-09-13T03:03:55;7.20;99.90
20422;DHT22;10370;53.102;18.034;2022-09-13T03:09:16;7.20;99.90
20422;DHT22;10370;53.102;18.034;2022-09-13T03:32:16;7.20;99.90
20422;DHT22;10370;53.102;18.034;2022-09-13T03:43:52;7.10;99.90
20422;DHT22;10370;53.102;18.034;2022-09-13T03:49:18;7.20;99.90
20422;DHT22;10370;53.102;18.034;2022-09-13T03:54:39;7.40;99.90
20422;DHT22;10370;53.102;18.034;2022-09-13T04:00:01;7.40;99.90
20422;DHT22;10370;53.102;18.034;2022-09-13T04:05:25;7.40;99.90
20422;DHT22;10370;53.102;18.034;2022-09-13T04:10:49;7.40;99.90
20422;DHT22;10370;53.102;18.034;2022-09-13T04:16:10;7.50;99.90
20422;DHT22;10370;53.102;18.034;2022-09-13T04:21:31;7.70;99.90
20422;DHT22;10370;53.102;18.034;2022-09-13T04:26:53;7.80;99.90
20422;DHT22;10370;53.102;18.034;2022-09-13T04:32:15;7.90;99.90
20422;DHT22;10370;53.102;18.034;2022-09-13T04:37:38;8.00;99.90
20422;DHT22;10370;53.102;18.034;2022-09-13T04:43:03;8.20;99.90
20422;DHT22;10370;53.102;18.034;2022-09-13T04:48:24;8.40;99.90
20422;DHT22;10370;53.102;18.034;2022-09-13T04:53:52;8.90;99.90
20422;DHT22;10370;53.102;18.034;2022-09-13T04:59:15;10.20;99.90
20422;DHT22;10370;53.102;18.034;2022-09-13T05:04:36;11.10;99.90
20422;DHT22;10370;53.102;18.034;2022-09-13T05:09:57;12.90;99.90
20422;DHT22;10370;53.102;18.034;2022-09-13T05:15:19;13.70;99.90
20422;DHT22;10370;53.102;18.034;2022-09-13T05:20:39;13.70;99.90
20422;DHT22;10370;53.102;18.034;2022-09-13T05:26:03;12.60;99.90
20422;DHT22;10370;53.102;18.034;2022-09-13T05:31:27;11.60;99.90
20422;DHT22;10370;53.102;18.034;2022-09-13T05:36:50;11.20;99.90
20422;DHT22;10370;53.102;18.034;2022-09-13T05:42:14;10.80;99.90
20422;DHT22;10370;53.102;18.034;2022-09-13T05:47:34;10.70;99.90
20422;DHT22;10370;53.102;18.034;2022-09-13T05:52:55;10.70;99.90
20422;DHT22;10370;53.102;18.034;2022-09-13T05:58:16;10.70;99.90
20422;DHT22;10370;53.102;18.034;2022-09-13T06:03:39;10.80;99.90
20422;DHT22;10370;53.102;18.034;2022-09-13T06:08:59;11.00;99.90
20422;DHT22;10370;53.102;18.034;2022-09-13T06:14:21;11.10;99.90
20422;DHT22;10370;53.102;18.034;2022-09-13T06:19:41;11.20;99.90
20422;DHT22;10370;53.102;18.034;2022-09-13T06:25:02;11.30;99.90
20422;DHT22;10370;53.102;18.034;2022-09-13T06:30:23;11.40;99.90
20422;DHT22;10370;53.102;18.034;2022-09-13T06:35:44;11.60;99.90
20422;DHT22;10370;53.102;18.034;2022-09-13T06:41:11;11.80;99.90
20422;DHT22;10370;53.102;18.034;2022-09-13T06:46:34;12.10;99.90
20422;DHT22;10370;53.102;18.034;2022-09-13T06:58:06;12.70;99.90
20422;DHT22;10370;53.102;18.034;2022-09-13T07:03:27;12.90;99.90
20422;DHT22;10370;53.102;18.034;2022-09-13T07:08:48;13.00;99.90
20422;DHT22;10370;53.102;18.034;2022-09-13T07:14:15;13.30;99.90
20422;DHT22;10370;53.102;18.034;2022-09-13T07:19:37;13.60;99.90
20422;DHT22;10370;53.102;18.034;2022-09-13T07:24:58;13.80;99.90
20422;DHT22;10370;53.102;18.034;2022-09-13T07:30:19;14.00;99.90
20422;DHT22;10370;53.102;18.034;2022-09-13T07:35:40;14.20;99.90
20422;DHT22;10370;53.102;18.034;2022-09-13T07:41:02;14.40;99.90
20422;DHT22;10370;53.102;18.034;2022-09-13T07:46:28;14.50;99.90
20422;DHT22;10370;53.102;18.034;2022-09-13T07:51:51;14.60;99.90
20422;DHT22;10370;53.102;18.034;2022-09-13T07:57:12;15.00;99.90
20422;DHT22;10370;53.102;18.034;2022-09-13T08:02:32;15.20;99.90
20422;DHT22;10370;53.102;18.034;2022-09-13T08:07:56;15.40;99.90
20422;DHT22;10370;53.102;18.034;2022-09-13T08:13:16;15.60;99.90
20422;DHT22;10370;53.102;18.034;2022-09-13T08:18:48;16.00;99.90
20422;DHT22;10370;53.102;18.034;2022-09-13T08:24:17;16.50;99.90
20422;DHT22;10370;53.102;18.034;2022-09-13T08:29:38;16.60;99.90
20422;DHT22;10370;53.102;18.034;2022-09-13T08:34:59;16.60;99.90
20422;DHT22;10370;53.102;18.034;2022-09-13T08:40:21;16.70;99.90
20422;DHT22;10370;53.102;18.034;2022-09-13T08:45:59;16.90;99.90
20422;DHT22;10370;53.102;18.034;2022-09-13T08:51:36;17.10;99.90
20422;DHT22;10370;53.102;18.034;2022-09-13T08:57:30;17.40;99.90
20422;DHT22;10370;53.102;18.034;2022-09-13T09:03:26;17.70;99.90
20422;DHT22;10370;53.102;18.034;2022-09-13T09:08:58;17.70;99.90
20422;DHT22;10370;53.102;18.034;2022-09-13T09:14:38;17.50;99.90
20422;DHT22;10370;53.102;18.034;2022-09-13T09:25:37;17.20;99.90
20422;DHT22;10370;53.102;18.034;2022-09-13T09:31:11;17.20;99.90
20422;DHT22;10370;53.102;18.034;2022-09-13T09:37:00;17.30;99.90
20422;DHT22;10370;53.102;18.034;2022-09-13T09:42:25;17.20;99.90
20422;DHT22;10370;53.102;18.034;2022-09-13T09:47:49;17.00;99.90
20422;DHT22;10370;53.102;18.034;2022-09-13T09:53:21;16.90;99.90
20422;DHT22;10370;53.102;18.034;2022-09-13T09:58:46;16.90;99.90
20422;DHT22;10370;53.102;18.034;2022-09-13T10:04:20;16.80;99.90
20422;DHT22;10370;53.102;18.034;2022-09-13T10:09:56;16.80;99.90
20422;DHT22;10370;53.102;18.034;2022-09-13T10:15:50;17.00;99.90
20422;DHT22;10370;53.102;18.034;2022-09-13T10:26:37;17.10;99.90
20422;DHT22;10370;53.102;18.034;2022-09-13T10:32:07;17.40;99.90
20422;DHT22;10370;53.102;18.034;2022-09-13T10:37:29;17.70;99.90
20422;DHT22;10370;53.102;18.034;2022-09-13T10:42:57;18.00;99.90
20422;DHT22;10370;53.102;18.034;2022-09-13T10:48:19;18.30;99.90
20422;DHT22;10370;53.102;18.034;2022-09-13T10:53:41;18.40;99.90
20422;DHT22;10370;53.102;18.034;2022-09-13T10:59:28;18.50;99.90
20422;DHT22;10370;53.102;18.034;2022-09-13T11:39:18;18.70;99.90
20422;DHT22;10370;53.102;18.034;2022-09-13T11:50:24;18.60;99.90
20422;DHT22;10370;53.102;18.034;2022-09-13T11:55:51;18.60;99.90
20422;DHT22;10370;53.102;18.034;2022-09-13T12:01:29;18.60;99.90
20422;DHT22;10370;53.102;18.034;2022-09-13T12:07:00;18.60;99.90
20422;DHT22;10370;53.102;18.034;2022-09-13T12:12:26;18.50;99.90
20422;DHT22;10370;53.102;18.034;2022-09-13T12:17:56;18.50;99.90
20422;DHT22;10370;53.102;18.034;2022-09-13T12:23:42;18.50;99.90
20422;DHT22;10370;53.102;18.034;2022-09-13T12:29:32;18.60;99.90
20422;DHT22;10370;53.102;18.034;2022-09-13T13:03:34;18.60;99.90
20422;DHT22;10370;53.102;18.034;2022-09-13T13:08:58;18.90;99.90
20422;DHT22;10370;53.102;18.034;2022-09-13T13:19:58;18.90;99.90
20422;DHT22;10370;53.102;18.034;2022-09-13T13:30:53;18.90;99.90
20422;DHT22;10370;53.102;18.034;2022-09-13T13:42:11;18.90;99.90
20422;DHT22;10370;53.102;18.034;2022-09-13T13:52:57;18.90;99.90
20422;DHT22;10370;53.102;18.034;2022-09-13T13:59:07;18.90;99.90
20422;DHT22;10370;53.102;18.034;2022-09-13T14:16:11;19.00;99.90
20422;DHT22;10370;53.102;18.034;2022-09-13T14:21:34;18.90;99.90
20422;DHT22;10370;53.102;18.034;2022-09-13T14:26:59;18.80;99.90
20422;DHT22;10370;53.102;18.034;2022-09-13T14:32:40;18.70;99.90
20422;DHT22;10370;53.102;18.034;2022-09-13T14:38:18;18.60;99.90
20422;DHT22;10370;53.102;18.034;2022-09-13T14:43:40;18.50;99.90
20422;DHT22;10370;53.102;18.034;2022-09-13T14:49:04;18.40;99.90
20422;DHT22;10370;53.102;18.034;2022-09-13T14:54:44;18.30;99.90
20422;DHT22;10370;53.102;18.034;2022-09-13T15:05:35;18.20;99.90
20422;DHT22;10370;53.102;18.034;2022-09-13T15:10:57;18.20;99.90
20422;DHT22;10370;53.102;18.034;2022-09-13T15:16:27;18.20;99.90
20422;DHT22;10370;53.102;18.034;2022-09-13T15:21:49;18.10;99.90
20422;DHT22;10370;53.102;18.034;2022-09-13T15:27:20;18.10;99.90
20422;DHT22;10370;53.102;18.034;2022-09-13T15:32:42;18.20;99.90
20422;DHT22;10370;53.102;18.034;2022-09-13T15:43:36;18.20;99.90
20422;DHT22;10370;53.102;18.034;2022-09-13T15:49:00;18.10;99.90
20422;DHT22;10370;53.102;18.034;2022-09-13T15:54:22;18.00;99.90
20422;DHT22;10370;53.102;18.034;2022-09-13T15:59:44;18.00;99.90
20422;DHT22;10370;53.102;18.034;2022-09-13T16:05:04;18.00;99.90
20422;DHT22;10370;53.102;18.034;2022-09-13T16:10:27;17.90;99.90
20422;DHT22;10370;53.102;18.034;2022-09-13T16:15:48;17.90;99.90
20422;DHT22;10370;53.102;18.034;2022-09-13T16:21:10;17.90;99.90
20422;DHT22;10370;53.102;18.034;2022-09-13T16:26:32;17.80;99.90
20422;DHT22;10370;53.102;18.034;2022-09-13T16:31:53;17.70;99.90
20422;DHT22;10370;53.102;18.034;2022-09-13T16:37:16;17.70;99.90
20422;DHT22;10370;53.102;18.034;2022-09-13T16:42:37;17.70;99.90
20422;DHT22;10370;53.102;18.034;2022-09-13T16:48:01;17.70;99.90
20422;DHT22;10370;53.102;18.034;2022-09-13T16:53:24;17.60;99.90
20422;DHT22;10370;53.102;18.034;2022-09-13T16:58:49;17.50;99.90
20422;DHT22;10370;53.102;18.034;2022-09-13T17:09:32;17.40;99.90
20422;DHT22;10370;53.102;18.034;2022-09-13T17:14:54;17.40;99.90
20422;DHT22;10370;53.102;18.034;2022-09-13T17:20:20;17.40;99.90
20422;DHT22;10370;53.102;18.034;2022-09-13T17:26:23;17.40;99.90
20422;DHT22;10370;53.102;18.034;2022-09-13T17:32:14;17.20;99.90
20422;DHT22;10370;53.102;18.034;2022-09-13T17:37:47;16.80;99.90
20422;DHT22;10370;53.102;18.034;2022-09-13T17:43:12;16.60;99.90
20422;DHT22;10370;53.102;18.034;2022-09-13T17:48:33;16.50;99.90
20422;DHT22;10370;53.102;18.034;2022-09-13T17:53:59;16.40;99.90
20422;DHT22;10370;53.102;18.034;2022-09-13T17:59:24;16.40;99.90
20422;DHT22;10370;53.102;18.034;2022-09-13T18:04:52;16.30;99.90
20422;DHT22;10370;53.102;18.034;2022-09-13T18:16:16;16.20;99.90
20422;DHT22;10370;53.102;18.034;2022-09-13T18:27:01;16.10;99.90
20422;DHT22;10370;53.102;18.034;2022-09-13T18:32:25;16.10;99.90
20422;DHT22;10370;53.102;18.034;2022-09-13T18:37:49;16.00;99.90
20422;DHT22;10370;53.102;18.034;2022-09-13T18:43:25;16.00;99.90
20422;DHT22;10370;53.102;18.034;2022-09-13T18:48:51;15.90;99.90
20422;DHT22;10370;53.102;18.034;2022-09-13T18:54:16;15.90;99.90
20422;DHT22;10370;53.102;18.034;2022-09-13T19:00:12;15.80;99.90
20422;DHT22;10370;53.102;18.034;2022-09-13T19:05:35;15.70;99.90
20422;DHT22;10370;53.102;18.034;2022-09-13T19:11:07;15.60;99.90
20422;DHT22;10370;53.102;18.034;2022-09-13T19:17:00;15.60;99.90
20422;DHT22;10370;53.102;18.034;2022-09-13T19:23:35;15.60;99.90
20422;DHT22;10370;53.102;18.034;2022-09-13T19:29:23;15.50;99.90
20422;DHT22;10370;53.102;18.034;2022-09-13T19:34:46;15.40;99.90
20422;DHT22;10370;53.102;18.034;2022-09-13T19:40:08;15.30;99.90
20422;DHT22;10370;53.102;18.034;2022-09-13T19:45:33;15.30;99.90
20422;DHT22;10370;53.102;18.034;2022-09-13T19:50:55;15.20;99.90
20422;DHT22;10370;53.102;18.034;2022-09-13T20:02:05;14.90;99.90
20422;DHT22;10370;53.102;18.034;2022-09-13T20:12:57;14.60;99.90
20422;DHT22;10370;53.102;18.034;2022-09-13T20:18:21;14.50;99.90
20422;DHT22;10370;53.102;18.034;2022-09-13T20:24:02;14.40;99.90
20422;DHT22;10370;53.102;18.034;2022-09-13T20:29:39;14.40;99.90
20422;DHT22;10370;53.102;18.034;2022-09-13T20:35:04;14.40;99.90
20422;DHT22;10370;53.102;18.034;2022-09-13T20:40:26;14.60;99.90
20422;DHT22;10370;53.102;18.034;2022-09-13T20:45:55;14.70;99.90
20422;DHT22;10370;53.102;18.034;2022-09-13T20:51:20;14.70;99.90
20422;DHT22;10370;53.102;18.034;2022-09-13T20:56:44;14.80;99.90
20422;DHT22;10370;53.102;18.034;2022-09-13T21:07:25;14.90;99.90
20422;DHT22;10370;53.102;18.034;2022-09-13T21:13:11;15.00;99.90
20422;DHT22;10370;53.102;18.034;2022-09-13T21:18:33;15.00;99.90
20422;DHT22;10370;53.102;18.034;2022-09-13T21:24:05;15.10;99.90
20422;DHT22;10370;53.102;18.034;2022-09-13T21:40:37;15.20;99.90
20422;DHT22;10370;53.102;18.034;2022-09-13T21:46:22;15.20;99.90
20422;DHT22;10370;53.102;18.034;2022-09-13T21:51:47;15.20;99.90
20422;DHT22;10370;53.102;18.034;2022-09-13T21:57:13;15.20;99.90
20422;DHT22;10370;53.102;18.034;2022-09-13T22:02:48;15.10;99.90
20422;DHT22;10370;53.102;18.034;2022-09-13T22:08:14;15.10;99.90
20422;DHT22;10370;53.102;18.034;2022-09-13T22:18:59;15.00;99.90
20422;DHT22;10370;53.102;18.034;2022-09-13T22:24:29;14.90;99.90
20422;DHT22;10370;53.102;18.034;2022-09-13T22:29:56;14.80;99.90
20422;DHT22;10370;53.102;18.034;2022-09-13T22:35:31;14.60;99.90
20422;DHT22;10370;53.102;18.034;2022-09-13T22:41:26;14.50;99.90
20422;DHT22;10370;53.102;18.034;2022-09-13T22:46:53;14.30;99.90
20422;DHT22;10370;53.102;18.034;2022-09-13T22:52:17;14.20;99.90
20422;DHT22;10370;53.102;18.034;2022-09-13T22:57:38;14.00;99.90
20422;DHT22;10370;53.102;18.034;2022-09-13T23:03:04;13.90;99.90
20422;DHT22;10370;53.102;18.034;2022-09-13T23:08:35;13.90;99.90
20422;DHT22;10370;53.102;18.034;2022-09-13T23:14:10;13.80;99.90
20422;DHT22;10370;53.102;18.034;2022-09-13T23:19:34;13.90;99.90
20422;DHT22;10370;53.102;18.034;2022-09-13T23:25:09;13.80;99.90
20422;DHT22;10370;53.102;18.034;2022-09-13T23:30:31;13.80;99.90
20422;DHT22;10370;53.102;18.034;2022-09-13T23:35:57;13.70;99.90
20422;DHT22;10370;53.102;18.034;2022-09-13T23:41:19;13.70;99.90
20422;DHT22;10370;53.102;18.034;2022-09-13T23:46:46;13.60;99.90
20422;DHT22;10370;53.102;18.034;2022-09-13T23:52:10;13.60;99.90
20422;DHT22;10370;53.102;18.034;2022-09-13T23:57:37;13.40;99.90
